sensor_id;sensor_type;location;lat;lon;timestamp;P1;durP1;ratioP1;P2;durP2;ratioP2
18334;SDS011;9293;49.524;10.964;2023-02-15T00:00:39;37.72;;;21.38;;
18334;SDS011;9293;49.524;10.964;2023-02-15T00:03:07;37.13;;;20.55;;
18334;SDS011;9293;49.524;10.964;2023-02-15T00:05:35;36.90;;;19.40;;
18334;SDS011;9293;49.524;10.964;2023-02-15T00:08:03;36.25;;;19.15;;
18334;SDS011;9293;49.524;10.964;2023-02-15T00:10:31;36.58;;;19.40;;
18334;SDS011;9293;49.524;10.964;2023-02-15T00:12:59;39.88;;;20.50;;
18334;SDS011;9293;49.524;10.964;2023-02-15T00:15:27;34.08;;;19.67;;
18334;SDS011;9293;49.524;10.964;2023-02-15T00:17:56;37.65;;;19.95;;
18334;SDS011;9293;49.524;10.964;2023-02-15T00:20:24;33.75;;;18.60;;
18334;SDS011;9293;49.524;10.964;2023-02-15T00:22:53;30.98;;;19.13;;
18334;SDS011;9293;49.524;10.964;2023-02-15T00:25:21;32.85;;;19.42;;
18334;SDS011;9293;49.524;10.964;2023-02-15T00:27:49;34.15;;;18.70;;
18334;SDS011;9293;49.524;10.964;2023-02-15T00:30:17;39.08;;;19.35;;
18334;SDS011;9293;49.524;10.964;2023-02-15T00:32:46;30.17;;;18.98;;
18334;SDS011;9293;49.524;10.964;2023-02-15T00:35:15;37.00;;;20.35;;
18334;SDS011;9293;49.524;10.964;2023-02-15T00:37:43;36.15;;;20.10;;
18334;SDS011;9293;49.524;10.964;2023-02-15T00:40:11;34.35;;;18.27;;
18334;SDS011;9293;49.524;10.964;2023-02-15T00:42:39;30.88;;;17.70;;
18334;SDS011;9293;49.524;10.964;2023-02-15T00:45:07;29.27;;;18.02;;
18334;SDS011;9293;49.524;10.964;2023-02-15T00:47:36;30.15;;;18.33;;
18334;SDS011;9293;49.524;10.964;2023-02-15T00:50:04;32.00;;;18.77;;
18334;SDS011;9293;49.524;10.964;2023-02-15T00:52:36;29.65;;;17.92;;
18334;SDS011;9293;49.524;10.964;2023-02-15T00:55:07;30.83;;;18.17;;
18334;SDS011;9293;49.524;10.964;2023-02-15T00:57:38;30.88;;;18.60;;
18334;SDS011;9293;49.524;10.964;2023-02-15T01:00:06;30.20;;;18.20;;
18334;SDS011;9293;49.524;10.964;2023-02-15T01:02:35;33.50;;;19.70;;
18334;SDS011;9293;49.524;10.964;2023-02-15T01:05:03;28.92;;;18.50;;
18334;SDS011;9293;49.524;10.964;2023-02-15T01:07:33;29.50;;;18.63;;
18334;SDS011;9293;49.524;10.964;2023-02-15T01:10:01;26.40;;;17.23;;
18334;SDS011;9293;49.524;10.964;2023-02-15T01:12:31;31.43;;;17.53;;
18334;SDS011;9293;49.524;10.964;2023-02-15T01:14:59;27.85;;;16.67;;
18334;SDS011;9293;49.524;10.964;2023-02-15T01:17:27;27.52;;;17.92;;
18334;SDS011;9293;49.524;10.964;2023-02-15T01:19:56;27.67;;;17.23;;
18334;SDS011;9293;49.524;10.964;2023-02-15T01:22:23;29.13;;;18.35;;
18334;SDS011;9293;49.524;10.964;2023-02-15T01:24:53;27.77;;;17.55;;
18334;SDS011;9293;49.524;10.964;2023-02-15T01:27:21;29.15;;;17.80;;
18334;SDS011;9293;49.524;10.964;2023-02-15T01:29:49;29.20;;;17.92;;
18334;SDS011;9293;49.524;10.964;2023-02-15T01:32:17;28.52;;;17.60;;
18334;SDS011;9293;49.524;10.964;2023-02-15T01:34:46;29.55;;;18.23;;
18334;SDS011;9293;49.524;10.964;2023-02-15T01:37:13;30.00;;;18.10;;
18334;SDS011;9293;49.524;10.964;2023-02-15T01:39:41;33.30;;;18.42;;
18334;SDS011;9293;49.524;10.964;2023-02-15T01:42:10;28.92;;;17.30;;
18334;SDS011;9293;49.524;10.964;2023-02-15T01:44:54;30.45;;;18.13;;
18334;SDS011;9293;49.524;10.964;2023-02-15T01:47:38;25.95;;;16.30;;
18334;SDS011;9293;49.524;10.964;2023-02-15T01:53:06;28.70;;;17.30;;
18334;SDS011;9293;49.524;10.964;2023-02-15T01:55:42;29.73;;;16.52;;
18334;SDS011;9293;49.524;10.964;2023-02-15T01:58:14;28.75;;;16.80;;
18334;SDS011;9293;49.524;10.964;2023-02-15T02:00:44;26.80;;;15.80;;
18334;SDS011;9293;49.524;10.964;2023-02-15T02:03:12;25.80;;;16.73;;
18334;SDS011;9293;49.524;10.964;2023-02-15T02:05:41;27.65;;;16.77;;
18334;SDS011;9293;49.524;10.964;2023-02-15T02:08:11;27.67;;;16.55;;
18334;SDS011;9293;49.524;10.964;2023-02-15T02:10:39;25.75;;;16.02;;
18334;SDS011;9293;49.524;10.964;2023-02-15T02:13:07;26.75;;;16.23;;
18334;SDS011;9293;49.524;10.964;2023-02-15T02:15:40;26.98;;;16.85;;
18334;SDS011;9293;49.524;10.964;2023-02-15T02:21:02;28.90;;;17.00;;
18334;SDS011;9293;49.524;10.964;2023-02-15T02:35:30;29.15;;;15.43;;
18334;SDS011;9293;49.524;10.964;2023-02-15T02:38:41;27.88;;;15.68;;
18334;SDS011;9293;49.524;10.964;2023-02-15T02:41:16;29.65;;;15.88;;
18334;SDS011;9293;49.524;10.964;2023-02-15T02:46:32;29.67;;;16.80;;
18334;SDS011;9293;49.524;10.964;2023-02-15T02:49:08;28.23;;;15.15;;
18334;SDS011;9293;49.524;10.964;2023-02-15T02:51:36;28.55;;;16.98;;
18334;SDS011;9293;49.524;10.964;2023-02-15T02:54:05;26.08;;;16.00;;
18334;SDS011;9293;49.524;10.964;2023-02-15T02:56:39;29.05;;;16.90;;
18334;SDS011;9293;49.524;10.964;2023-02-15T02:59:29;30.55;;;16.80;;
18334;SDS011;9293;49.524;10.964;2023-02-15T03:02:03;29.52;;;17.48;;
18334;SDS011;9293;49.524;10.964;2023-02-15T03:04:41;27.85;;;16.15;;
18334;SDS011;9293;49.524;10.964;2023-02-15T03:07:17;29.02;;;16.55;;
18334;SDS011;9293;49.524;10.964;2023-02-15T03:09:50;28.67;;;16.83;;
18334;SDS011;9293;49.524;10.964;2023-02-15T03:17:36;29.77;;;17.65;;
18334;SDS011;9293;49.524;10.964;2023-02-15T03:20:13;29.92;;;17.77;;
18334;SDS011;9293;49.524;10.964;2023-02-15T03:22:54;29.50;;;16.92;;
18334;SDS011;9293;49.524;10.964;2023-02-15T03:25:27;30.15;;;17.35;;
18334;SDS011;9293;49.524;10.964;2023-02-15T03:28:05;30.45;;;16.92;;
18334;SDS011;9293;49.524;10.964;2023-02-15T03:30:35;27.73;;;16.23;;
18334;SDS011;9293;49.524;10.964;2023-02-15T03:33:06;25.63;;;15.82;;
18334;SDS011;9293;49.524;10.964;2023-02-15T03:35:53;30.40;;;16.58;;
18334;SDS011;9293;49.524;10.964;2023-02-15T03:38:34;29.77;;;16.92;;
18334;SDS011;9293;49.524;10.964;2023-02-15T03:41:19;31.92;;;17.92;;
18334;SDS011;9293;49.524;10.964;2023-02-15T03:43:53;28.90;;;16.13;;
18334;SDS011;9293;49.524;10.964;2023-02-15T03:46:32;31.17;;;17.77;;
18334;SDS011;9293;49.524;10.964;2023-02-15T03:49:16;27.92;;;16.88;;
18334;SDS011;9293;49.524;10.964;2023-02-15T03:51:51;30.48;;;17.52;;
18334;SDS011;9293;49.524;10.964;2023-02-15T03:57:20;29.77;;;17.35;;
18334;SDS011;9293;49.524;10.964;2023-02-15T04:00:17;30.60;;;17.92;;
18334;SDS011;9293;49.524;10.964;2023-02-15T04:03:20;27.50;;;16.55;;
18334;SDS011;9293;49.524;10.964;2023-02-15T04:05:49;27.67;;;16.50;;
18334;SDS011;9293;49.524;10.964;2023-02-15T04:08:18;26.00;;;16.08;;
18334;SDS011;9293;49.524;10.964;2023-02-15T04:10:46;31.27;;;17.90;;
18334;SDS011;9293;49.524;10.964;2023-02-15T04:13:20;26.23;;;15.82;;
18334;SDS011;9293;49.524;10.964;2023-02-15T04:15:50;25.90;;;15.25;;
18334;SDS011;9293;49.524;10.964;2023-02-15T04:18:39;23.70;;;14.77;;
18334;SDS011;9293;49.524;10.964;2023-02-15T04:21:28;27.17;;;15.48;;
18334;SDS011;9293;49.524;10.964;2023-02-15T04:24:16;27.27;;;15.38;;
18334;SDS011;9293;49.524;10.964;2023-02-15T04:27:03;22.95;;;14.02;;
18334;SDS011;9293;49.524;10.964;2023-02-15T04:29:35;23.45;;;14.05;;
18334;SDS011;9293;49.524;10.964;2023-02-15T04:32:03;25.00;;;15.27;;
18334;SDS011;9293;49.524;10.964;2023-02-15T04:34:31;26.73;;;14.95;;
18334;SDS011;9293;49.524;10.964;2023-02-15T04:36:59;26.45;;;14.43;;
18334;SDS011;9293;49.524;10.964;2023-02-15T04:39:27;26.58;;;14.35;;
18334;SDS011;9293;49.524;10.964;2023-02-15T04:41:55;25.23;;;15.20;;
18334;SDS011;9293;49.524;10.964;2023-02-15T04:44:23;30.55;;;17.77;;
18334;SDS011;9293;49.524;10.964;2023-02-15T04:46:51;27.55;;;16.45;;
18334;SDS011;9293;49.524;10.964;2023-02-15T04:49:19;25.08;;;14.38;;
18334;SDS011;9293;49.524;10.964;2023-02-15T04:51:46;21.80;;;13.80;;
18334;SDS011;9293;49.524;10.964;2023-02-15T04:54:14;22.73;;;12.85;;
18334;SDS011;9293;49.524;10.964;2023-02-15T04:56:42;21.52;;;12.65;;
18334;SDS011;9293;49.524;10.964;2023-02-15T04:59:11;20.13;;;12.57;;
18334;SDS011;9293;49.524;10.964;2023-02-15T05:01:39;20.15;;;13.48;;
18334;SDS011;9293;49.524;10.964;2023-02-15T05:04:07;20.50;;;12.95;;
18334;SDS011;9293;49.524;10.964;2023-02-15T05:06:35;23.80;;;13.82;;
18334;SDS011;9293;49.524;10.964;2023-02-15T05:09:03;21.17;;;12.55;;
18334;SDS011;9293;49.524;10.964;2023-02-15T05:11:31;22.77;;;14.20;;
18334;SDS011;9293;49.524;10.964;2023-02-15T05:13:59;25.10;;;15.10;;
18334;SDS011;9293;49.524;10.964;2023-02-15T05:16:27;25.10;;;15.10;;
18334;SDS011;9293;49.524;10.964;2023-02-15T05:18:55;22.60;;;13.93;;
18334;SDS011;9293;49.524;10.964;2023-02-15T05:21:23;25.08;;;13.30;;
18334;SDS011;9293;49.524;10.964;2023-02-15T05:23:51;23.13;;;13.25;;
18334;SDS011;9293;49.524;10.964;2023-02-15T05:26:20;21.70;;;13.88;;
18334;SDS011;9293;49.524;10.964;2023-02-15T05:29:09;18.30;;;12.07;;
18334;SDS011;9293;49.524;10.964;2023-02-15T05:31:37;21.25;;;11.95;;
18334;SDS011;9293;49.524;10.964;2023-02-15T05:34:06;20.33;;;13.35;;
18334;SDS011;9293;49.524;10.964;2023-02-15T05:36:33;21.17;;;13.45;;
18334;SDS011;9293;49.524;10.964;2023-02-15T05:39:01;23.08;;;15.25;;
18334;SDS011;9293;49.524;10.964;2023-02-15T05:41:31;24.17;;;14.40;;
18334;SDS011;9293;49.524;10.964;2023-02-15T05:43:59;23.58;;;15.07;;
18334;SDS011;9293;49.524;10.964;2023-02-15T05:46:27;24.90;;;15.02;;
18334;SDS011;9293;49.524;10.964;2023-02-15T05:48:55;23.67;;;15.25;;
18334;SDS011;9293;49.524;10.964;2023-02-15T05:51:23;23.25;;;14.63;;
18334;SDS011;9293;49.524;10.964;2023-02-15T05:53:50;22.40;;;14.50;;
18334;SDS011;9293;49.524;10.964;2023-02-15T05:56:18;24.80;;;14.82;;
18334;SDS011;9293;49.524;10.964;2023-02-15T05:58:46;21.75;;;13.32;;
18334;SDS011;9293;49.524;10.964;2023-02-15T06:01:16;22.85;;;15.13;;
18334;SDS011;9293;49.524;10.964;2023-02-15T06:03:45;25.60;;;15.15;;
18334;SDS011;9293;49.524;10.964;2023-02-15T06:06:16;26.08;;;15.00;;
18334;SDS011;9293;49.524;10.964;2023-02-15T06:08:47;30.05;;;16.08;;
18334;SDS011;9293;49.524;10.964;2023-02-15T06:11:16;26.52;;;16.02;;
18334;SDS011;9293;49.524;10.964;2023-02-15T06:13:43;25.88;;;16.30;;
18334;SDS011;9293;49.524;10.964;2023-02-15T06:16:11;28.15;;;16.58;;
18334;SDS011;9293;49.524;10.964;2023-02-15T06:18:39;32.05;;;20.98;;
18334;SDS011;9293;49.524;10.964;2023-02-15T06:21:07;26.90;;;16.85;;
18334;SDS011;9293;49.524;10.964;2023-02-15T06:23:35;25.95;;;16.67;;
18334;SDS011;9293;49.524;10.964;2023-02-15T06:26:03;27.40;;;15.70;;
18334;SDS011;9293;49.524;10.964;2023-02-15T06:28:31;25.30;;;17.17;;
18334;SDS011;9293;49.524;10.964;2023-02-15T06:30:59;28.42;;;18.13;;
18334;SDS011;9293;49.524;10.964;2023-02-15T06:33:27;27.83;;;18.35;;
18334;SDS011;9293;49.524;10.964;2023-02-15T06:35:57;27.17;;;18.35;;
18334;SDS011;9293;49.524;10.964;2023-02-15T06:38:26;25.90;;;16.40;;
18334;SDS011;9293;49.524;10.964;2023-02-15T06:40:54;28.15;;;16.85;;
18334;SDS011;9293;49.524;10.964;2023-02-15T06:43:22;27.77;;;16.88;;
18334;SDS011;9293;49.524;10.964;2023-02-15T06:45:50;26.42;;;17.70;;
18334;SDS011;9293;49.524;10.964;2023-02-15T06:48:18;30.83;;;17.55;;
18334;SDS011;9293;49.524;10.964;2023-02-15T06:50:45;27.10;;;16.40;;
18334;SDS011;9293;49.524;10.964;2023-02-15T06:53:13;25.05;;;15.27;;
18334;SDS011;9293;49.524;10.964;2023-02-15T06:55:41;29.30;;;16.27;;
18334;SDS011;9293;49.524;10.964;2023-02-15T06:58:09;26.55;;;16.38;;
18334;SDS011;9293;49.524;10.964;2023-02-15T07:00:37;27.08;;;16.13;;
18334;SDS011;9293;49.524;10.964;2023-02-15T07:03:05;28.17;;;16.30;;
18334;SDS011;9293;49.524;10.964;2023-02-15T07:05:33;28.00;;;16.08;;
18334;SDS011;9293;49.524;10.964;2023-02-15T07:08:02;31.83;;;16.73;;
18334;SDS011;9293;49.524;10.964;2023-02-15T07:10:30;30.83;;;16.80;;
18334;SDS011;9293;49.524;10.964;2023-02-15T07:12:58;36.50;;;20.35;;
18334;SDS011;9293;49.524;10.964;2023-02-15T07:15:26;28.63;;;16.33;;
18334;SDS011;9293;49.524;10.964;2023-02-15T07:17:54;30.50;;;17.50;;
18334;SDS011;9293;49.524;10.964;2023-02-15T07:20:22;28.25;;;16.40;;
18334;SDS011;9293;49.524;10.964;2023-02-15T07:22:51;31.88;;;17.92;;
18334;SDS011;9293;49.524;10.964;2023-02-15T07:25:19;30.40;;;18.15;;
18334;SDS011;9293;49.524;10.964;2023-02-15T07:27:47;31.27;;;17.10;;
18334;SDS011;9293;49.524;10.964;2023-02-15T07:30:16;29.20;;;18.13;;
18334;SDS011;9293;49.524;10.964;2023-02-15T07:32:44;32.55;;;18.70;;
18334;SDS011;9293;49.524;10.964;2023-02-15T07:35:32;27.52;;;16.73;;
18334;SDS011;9293;49.524;10.964;2023-02-15T07:38:00;31.05;;;16.80;;
18334;SDS011;9293;49.524;10.964;2023-02-15T07:40:28;26.38;;;15.55;;
18334;SDS011;9293;49.524;10.964;2023-02-15T07:42:57;29.17;;;16.98;;
18334;SDS011;9293;49.524;10.964;2023-02-15T07:45:30;27.73;;;16.10;;
18334;SDS011;9293;49.524;10.964;2023-02-15T07:48:01;29.50;;;16.40;;
18334;SDS011;9293;49.524;10.964;2023-02-15T07:50:30;31.27;;;17.17;;
18334;SDS011;9293;49.524;10.964;2023-02-15T07:53:00;31.80;;;16.95;;
18334;SDS011;9293;49.524;10.964;2023-02-15T07:55:29;26.45;;;15.95;;
18334;SDS011;9293;49.524;10.964;2023-02-15T07:57:57;27.88;;;16.60;;
18334;SDS011;9293;49.524;10.964;2023-02-15T08:00:25;30.40;;;17.50;;
18334;SDS011;9293;49.524;10.964;2023-02-15T08:02:55;28.40;;;15.75;;
18334;SDS011;9293;49.524;10.964;2023-02-15T08:05:42;27.80;;;15.88;;
18334;SDS011;9293;49.524;10.964;2023-02-15T08:08:12;28.25;;;16.95;;
18334;SDS011;9293;49.524;10.964;2023-02-15T08:10:57;28.45;;;15.73;;
18334;SDS011;9293;49.524;10.964;2023-02-15T08:13:45;32.28;;;16.45;;
18334;SDS011;9293;49.524;10.964;2023-02-15T08:16:36;26.55;;;16.23;;
18334;SDS011;9293;49.524;10.964;2023-02-15T08:19:12;26.23;;;15.85;;
18334;SDS011;9293;49.524;10.964;2023-02-15T08:21:55;27.60;;;15.00;;
18334;SDS011;9293;49.524;10.964;2023-02-15T08:24:25;27.13;;;15.07;;
18334;SDS011;9293;49.524;10.964;2023-02-15T08:26:56;25.35;;;15.07;;
18334;SDS011;9293;49.524;10.964;2023-02-15T08:29:25;26.33;;;16.27;;
18334;SDS011;9293;49.524;10.964;2023-02-15T08:31:56;23.70;;;14.80;;
18334;SDS011;9293;49.524;10.964;2023-02-15T08:34:35;28.83;;;18.08;;
18334;SDS011;9293;49.524;10.964;2023-02-15T08:37:05;29.30;;;17.17;;
18334;SDS011;9293;49.524;10.964;2023-02-15T08:39:34;31.88;;;18.58;;
18334;SDS011;9293;49.524;10.964;2023-02-15T08:42:02;26.70;;;15.88;;
18334;SDS011;9293;49.524;10.964;2023-02-15T08:44:30;28.27;;;17.30;;
18334;SDS011;9293;49.524;10.964;2023-02-15T08:46:58;26.35;;;15.90;;
18334;SDS011;9293;49.524;10.964;2023-02-15T08:49:32;26.20;;;15.80;;
18334;SDS011;9293;49.524;10.964;2023-02-15T08:52:00;25.67;;;15.02;;
18334;SDS011;9293;49.524;10.964;2023-02-15T08:54:28;25.65;;;15.80;;
18334;SDS011;9293;49.524;10.964;2023-02-15T08:56:56;26.48;;;14.98;;
18334;SDS011;9293;49.524;10.964;2023-02-15T08:59:24;27.58;;;16.60;;
18334;SDS011;9293;49.524;10.964;2023-02-15T09:01:54;30.65;;;15.70;;
18334;SDS011;9293;49.524;10.964;2023-02-15T09:04:22;22.55;;;14.32;;
18334;SDS011;9293;49.524;10.964;2023-02-15T09:06:51;23.83;;;15.50;;
18334;SDS011;9293;49.524;10.964;2023-02-15T09:09:20;27.05;;;14.80;;
18334;SDS011;9293;49.524;10.964;2023-02-15T09:11:50;25.50;;;15.18;;
18334;SDS011;9293;49.524;10.964;2023-02-15T09:14:25;26.60;;;15.73;;
18334;SDS011;9293;49.524;10.964;2023-02-15T09:16:53;25.42;;;15.50;;
18334;SDS011;9293;49.524;10.964;2023-02-15T09:19:22;26.65;;;16.33;;
18334;SDS011;9293;49.524;10.964;2023-02-15T09:21:50;27.73;;;16.60;;
18334;SDS011;9293;49.524;10.964;2023-02-15T09:24:19;23.02;;;14.98;;
18334;SDS011;9293;49.524;10.964;2023-02-15T09:26:47;25.20;;;15.23;;
18334;SDS011;9293;49.524;10.964;2023-02-15T09:29:16;25.25;;;15.00;;
18334;SDS011;9293;49.524;10.964;2023-02-15T09:31:46;26.00;;;15.68;;
18334;SDS011;9293;49.524;10.964;2023-02-15T09:36:46;24.13;;;15.15;;
18334;SDS011;9293;49.524;10.964;2023-02-15T09:44:48;28.33;;;16.48;;
18334;SDS011;9293;49.524;10.964;2023-02-15T09:50:38;26.50;;;15.70;;
18334;SDS011;9293;49.524;10.964;2023-02-15T09:53:38;30.10;;;16.60;;
18334;SDS011;9293;49.524;10.964;2023-02-15T09:56:45;28.17;;;16.33;;
18334;SDS011;9293;49.524;10.964;2023-02-15T09:59:26;28.45;;;16.10;;
18334;SDS011;9293;49.524;10.964;2023-02-15T10:04:53;26.27;;;15.95;;
18334;SDS011;9293;49.524;10.964;2023-02-15T10:14:05;27.95;;;16.48;;
18334;SDS011;9293;49.524;10.964;2023-02-15T10:31:33;25.83;;;14.40;;
18334;SDS011;9293;49.524;10.964;2023-02-15T10:34:32;24.90;;;15.50;;
18334;SDS011;9293;49.524;10.964;2023-02-15T10:43:09;25.63;;;14.88;;
18334;SDS011;9293;49.524;10.964;2023-02-15T10:46:04;29.20;;;14.60;;
18334;SDS011;9293;49.524;10.964;2023-02-15T10:51:52;23.88;;;14.65;;
18334;SDS011;9293;49.524;10.964;2023-02-15T10:54:46;28.05;;;14.40;;
18334;SDS011;9293;49.524;10.964;2023-02-15T11:00:29;26.40;;;14.32;;
18334;SDS011;9293;49.524;10.964;2023-02-15T11:08:35;21.17;;;13.02;;
18334;SDS011;9293;49.524;10.964;2023-02-15T11:11:08;21.45;;;13.07;;
18334;SDS011;9293;49.524;10.964;2023-02-15T11:13:40;23.73;;;14.18;;
18334;SDS011;9293;49.524;10.964;2023-02-15T11:19:26;24.73;;;14.10;;
18334;SDS011;9293;49.524;10.964;2023-02-15T11:22:01;30.23;;;14.65;;
18334;SDS011;9293;49.524;10.964;2023-02-15T11:24:31;24.02;;;14.05;;
18334;SDS011;9293;49.524;10.964;2023-02-15T11:34:51;23.33;;;13.82;;
18334;SDS011;9293;49.524;10.964;2023-02-15T11:37:50;20.77;;;13.48;;
18334;SDS011;9293;49.524;10.964;2023-02-15T11:40:30;22.88;;;14.40;;
18334;SDS011;9293;49.524;10.964;2023-02-15T11:43:16;23.80;;;14.38;;
18334;SDS011;9293;49.524;10.964;2023-02-15T11:46:03;27.48;;;14.57;;
18334;SDS011;9293;49.524;10.964;2023-02-15T11:48:32;22.58;;;14.50;;
18334;SDS011;9293;49.524;10.964;2023-02-15T11:51:01;25.63;;;14.98;;
18334;SDS011;9293;49.524;10.964;2023-02-15T11:53:35;22.40;;;14.18;;
18334;SDS011;9293;49.524;10.964;2023-02-15T11:56:10;22.92;;;15.07;;
18334;SDS011;9293;49.524;10.964;2023-02-15T12:01:27;26.10;;;14.15;;
18334;SDS011;9293;49.524;10.964;2023-02-15T12:04:06;20.13;;;13.40;;
18334;SDS011;9293;49.524;10.964;2023-02-15T12:06:52;23.33;;;13.70;;
18334;SDS011;9293;49.524;10.964;2023-02-15T12:12:21;26.15;;;14.90;;
18334;SDS011;9293;49.524;10.964;2023-02-15T12:15:06;20.40;;;13.73;;
18334;SDS011;9293;49.524;10.964;2023-02-15T12:17:39;19.02;;;13.20;;
18334;SDS011;9293;49.524;10.964;2023-02-15T12:22:46;21.30;;;13.02;;
18334;SDS011;9293;49.524;10.964;2023-02-15T12:25:49;20.70;;;13.30;;
18334;SDS011;9293;49.524;10.964;2023-02-15T12:30:52;22.07;;;12.17;;
18334;SDS011;9293;49.524;10.964;2023-02-15T12:36:12;19.13;;;13.52;;
18334;SDS011;9293;49.524;10.964;2023-02-15T12:39:03;19.27;;;13.65;;
18334;SDS011;9293;49.524;10.964;2023-02-15T12:42:02;26.15;;;14.70;;
18334;SDS011;9293;49.524;10.964;2023-02-15T12:44:53;17.58;;;13.27;;
18334;SDS011;9293;49.524;10.964;2023-02-15T12:47:23;24.85;;;14.32;;
18334;SDS011;9293;49.524;10.964;2023-02-15T12:52:41;19.30;;;14.13;;
18334;SDS011;9293;49.524;10.964;2023-02-15T12:55:27;18.90;;;14.13;;
18334;SDS011;9293;49.524;10.964;2023-02-15T12:58:36;18.95;;;14.57;;
18334;SDS011;9293;49.524;10.964;2023-02-15T13:01:16;19.05;;;14.85;;
18334;SDS011;9293;49.524;10.964;2023-02-15T13:04:04;20.67;;;14.73;;
18334;SDS011;9293;49.524;10.964;2023-02-15T13:06:46;21.83;;;16.67;;
18334;SDS011;9293;49.524;10.964;2023-02-15T13:11:48;20.05;;;15.55;;
18334;SDS011;9293;49.524;10.964;2023-02-15T13:14:32;23.95;;;15.60;;
18334;SDS011;9293;49.524;10.964;2023-02-15T13:17:02;22.90;;;14.88;;
18334;SDS011;9293;49.524;10.964;2023-02-15T13:22:47;21.80;;;16.00;;
18334;SDS011;9293;49.524;10.964;2023-02-15T13:25:04;22.80;;;15.85;;
18334;SDS011;9293;49.524;10.964;2023-02-15T13:27:41;26.50;;;17.73;;
18334;SDS011;9293;49.524;10.964;2023-02-15T13:30:22;22.25;;;17.13;;
18334;SDS011;9293;49.524;10.964;2023-02-15T13:32:55;19.88;;;16.02;;
18334;SDS011;9293;49.524;10.964;2023-02-15T13:35:28;22.23;;;17.13;;
18334;SDS011;9293;49.524;10.964;2023-02-15T13:38:14;22.05;;;16.73;;
18334;SDS011;9293;49.524;10.964;2023-02-15T13:41:04;21.02;;;17.00;;
18334;SDS011;9293;49.524;10.964;2023-02-15T13:46:27;22.73;;;17.85;;
18334;SDS011;9293;49.524;10.964;2023-02-15T13:52:39;22.52;;;18.50;;
18334;SDS011;9293;49.524;10.964;2023-02-15T13:54:44;23.52;;;18.65;;
18334;SDS011;9293;49.524;10.964;2023-02-15T14:01:19;25.92;;;19.45;;
18334;SDS011;9293;49.524;10.964;2023-02-15T14:03:20;24.13;;;18.70;;
18334;SDS011;9293;49.524;10.964;2023-02-15T14:20:31;23.35;;;19.08;;
18334;SDS011;9293;49.524;10.964;2023-02-15T14:31:53;24.70;;;18.33;;
18334;SDS011;9293;49.524;10.964;2023-02-15T14:34:31;22.40;;;18.60;;
18334;SDS011;9293;49.524;10.964;2023-02-15T14:37:22;20.73;;;17.55;;
18334;SDS011;9293;49.524;10.964;2023-02-15T14:40:16;20.05;;;16.52;;
18334;SDS011;9293;49.524;10.964;2023-02-15T14:49:17;27.08;;;20.08;;
18334;SDS011;9293;49.524;10.964;2023-02-15T14:51:55;25.27;;;19.42;;
18334;SDS011;9293;49.524;10.964;2023-02-15T15:04:43;24.63;;;19.05;;
18334;SDS011;9293;49.524;10.964;2023-02-15T15:07:24;24.25;;;18.90;;
18334;SDS011;9293;49.524;10.964;2023-02-15T15:12:44;24.63;;;18.85;;
18334;SDS011;9293;49.524;10.964;2023-02-15T15:18:03;24.70;;;19.70;;
18334;SDS011;9293;49.524;10.964;2023-02-15T15:25:44;25.92;;;19.63;;
18334;SDS011;9293;49.524;10.964;2023-02-15T15:31:09;26.27;;;19.63;;
18334;SDS011;9293;49.524;10.964;2023-02-15T15:50:32;30.80;;;20.85;;
18334;SDS011;9293;49.524;10.964;2023-02-15T15:53:03;32.65;;;21.27;;
18334;SDS011;9293;49.524;10.964;2023-02-15T15:55:33;30.23;;;21.52;;
18334;SDS011;9293;49.524;10.964;2023-02-15T15:58:05;34.53;;;21.45;;
18334;SDS011;9293;49.524;10.964;2023-02-15T16:00:36;28.52;;;20.08;;
18334;SDS011;9293;49.524;10.964;2023-02-15T16:03:20;31.40;;;21.53;;
18334;SDS011;9293;49.524;10.964;2023-02-15T16:05:49;35.92;;;24.75;;
18334;SDS011;9293;49.524;10.964;2023-02-15T16:11:12;30.92;;;22.42;;
18334;SDS011;9293;49.524;10.964;2023-02-15T16:13:43;33.20;;;21.67;;
18334;SDS011;9293;49.524;10.964;2023-02-15T16:16:12;30.25;;;21.38;;
18334;SDS011;9293;49.524;10.964;2023-02-15T16:18:41;34.63;;;20.00;;
18334;SDS011;9293;49.524;10.964;2023-02-15T16:21:25;41.60;;;22.75;;
18334;SDS011;9293;49.524;10.964;2023-02-15T16:27:03;34.92;;;20.90;;
18334;SDS011;9293;49.524;10.964;2023-02-15T16:29:39;34.30;;;22.30;;
18334;SDS011;9293;49.524;10.964;2023-02-15T16:34:57;32.95;;;21.52;;
18334;SDS011;9293;49.524;10.964;2023-02-15T16:37:27;30.20;;;22.58;;
18334;SDS011;9293;49.524;10.964;2023-02-15T16:40:00;37.13;;;23.35;;
18334;SDS011;9293;49.524;10.964;2023-02-15T16:42:28;32.70;;;22.52;;
18334;SDS011;9293;49.524;10.964;2023-02-15T16:47:34;36.53;;;23.33;;
18334;SDS011;9293;49.524;10.964;2023-02-15T16:50:10;37.28;;;23.58;;
18334;SDS011;9293;49.524;10.964;2023-02-15T16:52:50;38.25;;;25.83;;
18334;SDS011;9293;49.524;10.964;2023-02-15T16:55:24;38.67;;;22.35;;
18334;SDS011;9293;49.524;10.964;2023-02-15T16:57:57;37.63;;;23.85;;
18334;SDS011;9293;49.524;10.964;2023-02-15T17:00:32;35.85;;;21.90;;
18334;SDS011;9293;49.524;10.964;2023-02-15T17:08:14;34.33;;;21.98;;
18334;SDS011;9293;49.524;10.964;2023-02-15T17:10:46;35.85;;;22.05;;
18334;SDS011;9293;49.524;10.964;2023-02-15T17:13:31;33.17;;;21.45;;
18334;SDS011;9293;49.524;10.964;2023-02-15T17:18:29;38.78;;;24.92;;
18334;SDS011;9293;49.524;10.964;2023-02-15T17:21:00;39.58;;;23.33;;
18334;SDS011;9293;49.524;10.964;2023-02-15T17:23:48;40.28;;;23.30;;
18334;SDS011;9293;49.524;10.964;2023-02-15T17:26:22;36.63;;;23.02;;
18334;SDS011;9293;49.524;10.964;2023-02-15T17:28:55;37.70;;;22.55;;
18334;SDS011;9293;49.524;10.964;2023-02-15T17:31:31;36.88;;;23.45;;
18334;SDS011;9293;49.524;10.964;2023-02-15T17:34:00;35.53;;;23.55;;
18334;SDS011;9293;49.524;10.964;2023-02-15T17:36:30;37.38;;;24.33;;
18334;SDS011;9293;49.524;10.964;2023-02-15T17:41:31;40.58;;;24.75;;
18334;SDS011;9293;49.524;10.964;2023-02-15T17:44:01;38.65;;;24.85;;
18334;SDS011;9293;49.524;10.964;2023-02-15T17:46:34;43.10;;;27.52;;
18334;SDS011;9293;49.524;10.964;2023-02-15T17:49:04;46.70;;;26.48;;
18334;SDS011;9293;49.524;10.964;2023-02-15T17:51:32;41.75;;;26.98;;
18334;SDS011;9293;49.524;10.964;2023-02-15T17:54:02;42.65;;;27.90;;
18334;SDS011;9293;49.524;10.964;2023-02-15T17:56:54;44.88;;;26.90;;
18334;SDS011;9293;49.524;10.964;2023-02-15T17:59:24;41.47;;;26.08;;
18334;SDS011;9293;49.524;10.964;2023-02-15T18:01:52;42.38;;;25.55;;
18334;SDS011;9293;49.524;10.964;2023-02-15T18:04:39;41.72;;;26.75;;
18334;SDS011;9293;49.524;10.964;2023-02-15T18:07:26;41.17;;;25.67;;
18334;SDS011;9293;49.524;10.964;2023-02-15T18:10:16;44.75;;;25.35;;
18334;SDS011;9293;49.524;10.964;2023-02-15T18:13:04;40.15;;;26.73;;
18334;SDS011;9293;49.524;10.964;2023-02-15T18:15:32;45.08;;;28.52;;
18334;SDS011;9293;49.524;10.964;2023-02-15T18:18:01;49.03;;;27.77;;
18334;SDS011;9293;49.524;10.964;2023-02-15T18:20:35;45.97;;;27.90;;
18334;SDS011;9293;49.524;10.964;2023-02-15T18:23:04;44.35;;;27.55;;
18334;SDS011;9293;49.524;10.964;2023-02-15T18:25:32;42.38;;;27.08;;
18334;SDS011;9293;49.524;10.964;2023-02-15T18:28:00;52.95;;;29.50;;
18334;SDS011;9293;49.524;10.964;2023-02-15T18:30:28;50.17;;;28.60;;
18334;SDS011;9293;49.524;10.964;2023-02-15T18:32:57;47.10;;;27.70;;